createdAt,value
2024-01-20T00:09:49.948Z,19.87
2024-01-20T00:19:56.341Z,21.73
2024-01-20T00:30:05.118Z,27.30
2024-01-20T00:40:09.411Z,30.33
2024-01-20T00:50:13.936Z,29.40
2024-01-20T01:00:17.117Z,30.20
2024-01-20T01:10:21.485Z,29.47
2024-01-20T01:20:24.343Z,26.50
2024-01-20T01:30:29.013Z,26.77
2024-01-20T01:40:31.875Z,24.80
2024-01-20T01:50:36.099Z,25.80
2024-01-20T02:00:39.657Z,28.60
2024-01-20T02:10:45.309Z,26.80
2024-01-20T02:20:48.398Z,26.57
2024-01-20T02:30:52.497Z,27.23
2024-01-20T02:40:55.405Z,28.67
2024-01-20T02:51:00.615Z,26.53
2024-01-20T03:01:03.530Z,29.50
2024-01-20T03:11:07.977Z,34.53
2024-01-20T03:21:10.887Z,89.57
2024-01-20T03:31:15.409Z,76.80
2024-01-20T03:41:19.525Z,41.50
2024-01-20T03:51:28.571Z,33.43
2024-01-20T04:01:31.675Z,31.90
2024-01-20T04:11:39.841Z,34.80
2024-01-20T04:21:45.296Z,29.10
2024-01-20T04:31:49.480Z,29.43
2024-01-20T04:41:52.427Z,28.20
2024-01-20T04:51:58.626Z,28.83
2024-01-20T05:02:01.492Z,28.77
2024-01-20T05:12:06.519Z,26.70
2024-01-20T05:22:09.566Z,27.67
2024-01-20T05:32:13.703Z,28.43
2024-01-20T05:42:16.599Z,26.30
2024-01-20T05:52:20.899Z,27.87
2024-01-20T06:02:23.648Z,26.77
2024-01-20T06:12:27.842Z,27.13
2024-01-20T06:22:30.690Z,24.70
2024-01-20T06:32:34.816Z,26.47
2024-01-20T06:42:37.755Z,29.30
2024-01-20T06:52:43.411Z,28.07
2024-01-20T07:02:46.323Z,26.37
2024-01-20T07:12:50.746Z,30.30
2024-01-20T07:22:53.754Z,25.83
2024-01-20T07:33:00.030Z,29.47
2024-01-20T07:43:02.960Z,24.07
2024-01-20T07:53:07.441Z,26.93
2024-01-20T08:03:10.457Z,25.40
2024-01-20T08:13:15.010Z,29.83
2024-01-20T08:23:18.124Z,45.73
2024-01-20T08:33:22.406Z,32.20
2024-01-20T08:43:25.446Z,29.37
2024-01-20T08:53:29.935Z,46.83
2024-01-20T09:03:32.805Z,46.60
2024-01-20T09:13:37.231Z,27.93
2024-01-20T09:23:40.828Z,19.93
2024-01-20T09:33:46.423Z,18.93
2024-01-20T09:43:50.412Z,18.17
2024-01-20T09:54:00.276Z,13.10
2024-01-20T10:04:05.334Z,14.50
2024-01-20T10:14:09.565Z,14.90
2024-01-20T10:24:12.423Z,13.27
2024-01-20T10:34:16.951Z,12.87
2024-01-20T10:44:22.960Z,12.50
2024-01-20T10:54:29.261Z,13.03
2024-01-20T11:04:36.030Z,13.60
2024-01-20T11:14:42.927Z,11.57
2024-01-20T11:24:46.131Z,13.23
2024-01-20T11:34:50.640Z,14.03
2024-01-20T11:44:53.781Z,14.43
2024-01-20T11:54:57.902Z,15.03
2024-01-20T12:05:07.784Z,35.83
2024-01-20T12:15:13.028Z,16.10
2024-01-20T12:25:17.387Z,13.00
2024-01-20T12:35:22.163Z,14.47
2024-01-20T12:45:32.281Z,15.83
2024-01-20T12:55:41.740Z,14.00
2024-01-20T13:05:46.084Z,14.63
2024-01-20T13:15:50.337Z,14.97
2024-01-20T13:25:55.668Z,15.17
2024-01-20T13:35:59.918Z,15.13
2024-01-20T13:46:03.718Z,16.73
2024-01-20T13:56:08.367Z,14.70
2024-01-20T14:06:33.744Z,16.13
2024-01-20T14:27:45.401Z,16.43
2024-01-20T14:48:40.569Z,17.33
2024-01-20T14:58:54.375Z,18.17
2024-01-20T15:08:59.835Z,18.47
2024-01-20T15:19:04.615Z,21.00
2024-01-20T15:29:09.366Z,26.10
2024-01-20T15:39:13.713Z,21.47
2024-01-20T15:49:18.347Z,19.73
2024-01-20T15:59:25.181Z,21.77
2024-01-20T16:09:29.223Z,19.40
2024-01-20T16:19:36.464Z,19.47
2024-01-20T16:29:39.293Z,21.23
2024-01-20T16:39:43.519Z,23.30
2024-01-20T16:49:46.763Z,22.23
2024-01-20T16:59:51.300Z,19.93
2024-01-20T17:09:54.188Z,21.57
2024-01-20T17:19:59.207Z,20.50
2024-01-20T17:30:02.102Z,20.57
2024-01-20T17:40:09.023Z,24.37
2024-01-20T17:50:12.020Z,22.67
2024-01-20T18:00:18.177Z,25.27
2024-01-20T18:10:21.204Z,24.87
2024-01-20T18:20:25.422Z,29.20
2024-01-20T18:30:28.256Z,26.53
2024-01-20T18:40:32.505Z,39.10
2024-01-20T18:50:38.713Z,96.40
2024-01-20T19:00:43.073Z,89.17
2024-01-20T19:10:46.007Z,43.23
2024-01-20T19:20:50.392Z,37.50
2024-01-20T19:30:55.446Z,39.17
2024-01-20T19:40:59.659Z,42.97
2024-01-20T19:51:02.767Z,41.63
2024-01-20T20:01:07.714Z,36.50
2024-01-20T20:11:11.782Z,35.03
2024-01-20T20:21:16.815Z,34.20
2024-01-20T20:31:23.169Z,35.77
2024-01-20T20:41:27.361Z,31.37
2024-01-20T20:51:30.374Z,29.23
2024-01-20T21:01:50.400Z,28.90
2024-01-20T21:11:53.304Z,25.60
2024-01-20T21:21:57.782Z,30.87
2024-01-20T21:32:00.668Z,22.63
2024-01-20T21:42:05.484Z,21.43
2024-01-20T21:52:08.826Z,21.57
2024-01-20T22:02:13.000Z,21.10
2024-01-20T22:12:15.937Z,20.20
2024-01-20T22:22:20.896Z,19.63
2024-01-20T22:32:23.881Z,20.70
2024-01-20T22:42:28.109Z,20.87
2024-01-20T22:52:31.020Z,21.63
2024-01-20T23:02:35.167Z,22.23
2024-01-20T23:12:38.058Z,22.93
2024-01-20T23:22:42.657Z,23.33
2024-01-20T23:32:45.799Z,23.07
2024-01-20T23:42:50.408Z,27.23
2024-01-20T23:52:53.266Z,25.27
